• Join FlightAware (Why Join?)
  • Login
  • US Flag 
03:46PM EDT


 

Airport Tracker/Info


-or-


 

Live Flight TrackerFlight Track Log ✈ SWA1130 ✈ 06-Jul-2013 ✈ KDAL - KLBB

Flight Track Log - Related Links

Times and Time Zones

All times are in EDT time to prevent confusion due to time zone crossing. See the SWA1130 flight status page for this flight to view local times or setup timezone preferences in your user account.

Time Position Orientation Groundspeed Altitude Reporting Facility
EDT Latitude Longitude Course Direction KTS MPH feet Rate Location/Type
12:20PM 32.8000 -96.7833 128° Southeast 228 262 3,500  Level Dallas / Fort Worth TRACON
12:21PM 32.7500 -96.7667 164° South 255 293 6,100 2,700 Climbing Dallas / Fort Worth TRACON
12:22PM 32.6667 -96.8167 207° Southwest 302 348 9,000 2,460 Climbing Dallas / Fort Worth TRACON
12:23PM 32.6258 -96.9792 253° West 313 360 12,800 2,340 Climbing Fort Worth Center
12:24PM 32.6700 -97.0753 299° West 302 348 15,400 2,700 Climbing Fort Worth Center
12:25PM 32.7206 -97.1814 300° West 340 391 18,200 2,460 Climbing Fort Worth Center
12:26PM 32.7686 -97.2850 299° West 363 418 20,400 2,040 Climbing Fort Worth Center
12:27PM 32.8208 -97.3936 300° West 377 434 22,300 1,860 Climbing Fort Worth Center
12:28PM 32.8772 -97.5147 299° West 392 451 24,200 1,620 Climbing Fort Worth Center
12:29PM 32.9272 -97.6214 299° West 406 467 25,600 1,560 Climbing Fort Worth Center
12:30PM 32.9622 -97.7525 288° West 411 473 27,400 1,560 Climbing Fort Worth Center
12:31PM 32.9847 -97.8914 281° West 416 479 28,800 1,440 Climbing Fort Worth Center
12:32PM 33.0156 -98.0328 285° West 434 499 30,300 1,740 Climbing Fort Worth Center
12:33PM 33.0419 -98.1767 282° West 446 513 32,300 2,100 Climbing Fort Worth Center
12:34PM 33.0661 -98.3108 282° West 441 507 34,600 1,680 Climbing Fort Worth Center
12:35PM 33.0900 -98.4425 282° West 420 483 35,700 660 Climbing Fort Worth Center
12:36PM 33.1158 -98.5842 282° West 409 471 36,000 120 Climbing Fort Worth Center
12:37PM 33.1417 -98.7183 283° West 409 471 36,000  Level Fort Worth Center
12:38PM 33.1653 -98.8578 281° West 415 478 36,000  Level Fort Worth Center
12:39PM 33.1928 -98.9947 284° West 415 478 36,000  Level Fort Worth Center
12:40PM 33.2161 -99.1317 282° West 420 483 36,000  Level Fort Worth Center
12:41PM 33.2411 -99.2714 282° West 420 483 36,000  Level Fort Worth Center
12:42PM 33.2661 -99.4083 282° West 425 489 36,000  Level Fort Worth Center
12:43PM 33.2889 -99.5456 281° West 425 489 36,000  Level Fort Worth Center
12:44PM 33.3136 -99.6831 282° West 425 489 36,000  Level Fort Worth Center
12:45PM 33.3383 -99.8203 282° West 425 489 36,000 -780 Level Fort Worth Center
12:46PM 33.3606 -99.9578 281° West 431 496 34,500 -2,400 Descending Fort Worth Center
12:47PM 33.3847 -100.0978 282° West 431 496 31,300 -3,000 Descending Fort Worth Center
12:48PM 33.4069 -100.2328 281° West 431 496 28,600 -2,340 Descending Fort Worth Center
12:49PM 33.4311 -100.3656 282° West 421 484 26,700 -1,440 Descending Fort Worth Center
12:50PM 33.4528 -100.5031 281° West 421 484 25,800 -1,740 Descending Fort Worth Center
12:51PM 33.4744 -100.6383 281° West 416 479 23,300 -2,520 Descending Fort Worth Center
12:52PM 33.4828 -100.7208 277° West 416 479 21,800 -2,460 Descending Fort Worth Center
12:53PM 33.5136 -100.8839 283° West 388 447 18,600 -2,520 Descending Fort Worth Center
12:54PM 33.5392 -101.0144 283° West 376 433 16,000 -2,100 Descending Fort Worth Center
12:55PM 33.5694 -101.1278 288° West 356 410 14,400 -1,920 Descending Fort Worth Center
12:56PM 33.5953 -101.2386 286° West 336 387 12,200 -2,040 Descending Fort Worth Center
12:57PM 33.6211 -101.3422 287° West 330 380 10,300 -1,500 Descending Fort Worth Center
12:58PM 33.6411 -101.4403 284° West 296 341 9,200 -1,200 Descending Fort Worth Center
12:59PM 33.6653 -101.5336 287° West 284 327 8,000 -1,260 Descending Fort Worth Center
01:00PM 33.6872 -101.6222 287° West 292 336 6,700 -1,020 Descending Fort Worth Center
01:01PM 33.7111 -101.7206 286° West 292 336 6,000 -600 Descending Fort Worth Center
01:02PM 33.7275 -101.7864 287° West 231 266 5,600 -960 Descending Fort Worth Center
01:03PM 33.7197 -101.8258 257° West 131 151 4,100 -1,140 Descending Fort Worth Center
01:04PM 33.6800 -101.8314 187° South 117 135 3,400 -420 Descending Fort Worth Center
01:05PM 33.6544 -101.8450 204° Southwest 117 135 3,300 10,260 Descending Fort Worth Center
01:06PM 33.6228 -101.8561 196° South 117 135 24,000 20,700 Climbing Fort Worth Center